Time;durP1;ratioP1;P1;durP2;ratioP2;P2;SDS_P1;SDS_P2;PMS_P1;PMS_P2;Temp;Humidity;BMP_temperature;BMP_pressure;BME280_temperature;BME280_humidity;BME280_pressure;Samples;Min_cycle;Max_cycle;Signal;HPM_P1;HPM_P2
2022/10/02 00:00:55;;;;;;;8.00;5.70;;;;;;;16.23;91.52;99957.20;107530;1247;60587;-69
2022/10/02 00:03:36;;;;;;;8.10;5.40;;;;;;;16.24;93.62;99953.45;107471;1247;62172;-71
2022/10/02 00:06:20;;;;;;;9.90;6.20;;;;;;;16.24;92.33;99942.94;107593;1247;74500;-70
2022/10/02 00:08:58;;;;;;;7.30;5.60;;;;;;;16.24;95.08;99951.84;107473;1247;72819;-71
2022/10/02 00:11:42;;;;;;;9.40;5.60;;;;;;;16.26;94.22;99966.90;107631;1247;71543;-70
2022/10/02 00:14:16;;;;;;;8.60;6.10;;;;;;;16.26;93.32;99970.40;107579;1247;72249;-69
2022/10/02 00:16:52;;;;;;;9.90;5.80;;;;;;;16.32;97.53;99973.14;107687;1247;60596;-68
2022/10/02 00:19:21;;;;;;;8.80;6.10;;;;;;;16.33;97.44;99980.35;107533;1247;58915;-70
2022/10/02 00:22:13;;;;;;;10.20;6.40;;;;;;;16.34;97.11;99977.64;107671;1247;72489;-70
2022/10/02 00:24:51;;;;;;;8.90;6.30;;;;;;;16.35;97.07;99969.70;107680;1247;72219;-71
2022/10/02 00:28:09;;;;;;;7.60;6.20;;;;;;;16.33;97.30;99968.39;107597;1247;70748;-70
2022/10/02 00:31:18;;;;;;;9.10;6.50;;;;;;;16.30;97.35;99970.86;107624;1247;72441;-70
2022/10/02 00:34:51;;;;;;;10.10;6.30;;;;;;;16.30;97.15;99964.67;107638;1247;61389;-71
2022/10/02 00:37:22;;;;;;;10.90;6.80;;;;;;;16.31;96.97;99967.73;107220;1247;60829;-68
2022/10/02 00:40:38;;;;;;;8.60;6.10;;;;;;;16.32;97.53;99971.89;107512;1247;63571;-68
2022/10/02 00:43:16;;;;;;;9.60;5.90;;;;;;;16.31;94.01;99968.43;107565;1247;71304;-70
2022/10/02 00:46:01;;;;;;;8.80;5.90;;;;;;;16.26;93.74;99960.19;107583;1247;70038;-69
2022/10/02 00:49:11;;;;;;;7.70;5.30;;;;;;;16.21;93.31;99961.80;107573;1247;72081;-71
2022/10/02 00:52:19;;;;;;;9.20;6.20;;;;;;;16.16;93.72;99968.65;107202;1250;60644;-71
2022/10/02 00:55:11;;;;;;;8.10;6.10;;;;;;;16.08;93.52;99950.71;107247;1250;59532;-74
2022/10/02 00:58:09;;;;;;;8.50;6.50;;;;;;;15.98;94.95;99947.81;107674;1247;71675;-73
2022/10/02 01:00:39;;;;;;;9.80;6.50;;;;;;;15.90;95.93;99955.98;107754;1247;69558;-70
2022/10/02 01:03:19;;;;;;;9.30;6.10;;;;;;;15.92;94.44;99954.09;107795;1246;69809;-69
2022/10/02 01:05:49;;;;;;;9.00;6.60;;;;;;;15.92;93.84;99951.95;107815;1247;74678;-71
2022/10/02 01:08:18;;;;;;;7.20;6.00;;;;;;;15.94;93.85;99944.68;107733;1247;61607;-71
2022/10/02 01:10:47;;;;;;;10.90;6.40;;;;;;;15.97;97.09;99945.67;107298;1247;61273;-70
2022/10/02 01:13:16;;;;;;;9.90;7.10;;;;;;;16.00;97.35;99949.13;107525;1247;72144;-70
2022/10/02 01:15:56;;;;;;;8.90;5.80;;;;;;;16.04;97.13;99951.17;107668;1247;69886;-70
2022/10/02 01:18:25;;;;;;;8.40;6.30;;;;;;;16.10;96.76;99951.04;107725;1244;69696;-70
2022/10/02 01:21:04;;;;;;;10.00;6.30;;;;;;;16.15;96.66;99949.02;107689;1246;72523;-71
2022/10/02 01:24:03;;;;;;;9.70;6.80;;;;;;;16.16;95.79;99943.68;107654;1244;59587;-71
2022/10/02 01:26:32;;;;;;;9.70;6.70;;;;;;;16.12;96.08;99938.98;107898;1244;60423;-71
2022/10/02 01:29:01;;;;;;;7.70;6.90;;;;;;;16.09;97.24;99944.15;107649;1245;73460;-71
2022/10/02 01:31:33;;;;;;;13.10;7.40;;;;;;;16.08;97.68;99960.63;107637;1244;71431;-70
2022/10/02 01:34:03;;;;;;;8.80;6.50;;;;;;;16.07;97.36;99952.95;107652;1244;70203;-71
2022/10/02 01:36:32;;;;;;;7.30;6.40;;;;;;;16.05;98.03;99952.13;107661;1247;71628;-69
2022/10/02 01:39:02;;;;;;;9.50;7.00;;;;;;;16.05;99.47;99956.84;107608;1244;63008;-69
2022/10/02 01:41:38;;;;;;;11.20;6.70;;;;;;;15.97;99.44;99954.56;107633;1244;59842;-70
2022/10/02 01:44:07;;;;;;;8.30;6.60;;;;;;;15.93;99.31;99949.91;107788;1242;72120;-70
2022/10/02 01:47:14;;;;;;;8.60;7.00;;;;;;;15.93;99.48;99959.42;107843;1244;72357;-70
2022/10/02 01:50:22;;;;;;;8.80;6.80;;;;;;;15.93;99.52;99964.50;107702;1244;68336;-69
2022/10/02 01:52:59;;;;;;;8.50;7.00;;;;;;;15.95;99.78;99962.05;107917;1244;73169;-69
2022/10/02 01:55:56;;;;;;;9.80;6.80;;;;;;;15.94;99.68;99959.48;107869;1244;62653;-72
2022/10/02 01:59:14;;;;;;;9.10;6.40;;;;;;;15.94;99.34;99957.23;107348;1247;61911;-70
2022/10/02 02:01:49;;;;;;;8.50;6.90;;;;;;;15.90;99.78;99949.82;107706;1244;75026;-70
2022/10/02 02:04:28;;;;;;;9.90;6.60;;;;;;;15.90;99.63;99946.56;107661;1245;73005;-71
2022/10/02 02:07:17;;;;;;;8.10;6.50;;;;;;;15.89;99.86;99950.13;107724;1244;69979;-68
2022/10/02 02:10:16;;;;;;;8.90;6.10;;;;;;;15.88;99.90;99945.60;107674;1244;72368;-70
2022/10/02 02:13:03;;;;;;;8.50;6.50;;;;;;;15.88;99.75;99940.92;107346;1247;60615;-71
2022/10/02 02:15:47;;;;;;;7.50;6.30;;;;;;;15.86;98.28;99941.98;107801;1244;60374;-70
2022/10/02 02:18:33;;;;;;;9.10;6.10;;;;;;;15.83;99.06;99936.52;107817;1244;74941;-70
2022/10/02 02:21:12;;;;;;;9.80;6.40;;;;;;;15.83;98.15;99938.81;107862;1244;72147;-74
2022/10/02 02:23:42;;;;;;;8.40;6.30;;;;;;;15.78;97.76;99935.05;107671;1244;67859;-68
2022/10/02 02:26:14;;;;;;;7.60;6.40;;;;;;;15.72;98.30;99931.98;107489;1244;73984;-71
2022/10/02 02:28:50;;;;;;;6.50;5.80;;;;;;;15.65;99.93;99931.61;107779;1244;62152;-69
2022/10/02 02:31:26;;;;;;;7.30;6.00;;;;;;;15.63;99.05;99934.43;107740;1244;60955;-70
2022/10/02 02:34:02;;;;;;;10.60;6.20;;;;;;;15.61;98.45;99939.00;107704;1244;74438;-70
2022/10/02 02:36:46;;;;;;;8.20;6.60;;;;;;;15.60;99.62;99942.31;107595;1246;71994;-70
2022/10/02 02:39:22;;;;;;;8.90;6.30;;;;;;;15.58;99.29;99949.15;107857;1244;70403;-71
2022/10/02 02:41:58;;;;;;;9.40;6.40;;;;;;;15.54;97.70;99953.25;107622;1244;75083;-70
2022/10/02 02:44:44;;;;;;;7.40;6.10;;;;;;;15.49;98.03;99950.65;107461;1244;62707;-70
2022/10/02 02:47:14;;;;;;;9.30;6.90;;;;;;;15.44;98.43;99951.15;107699;1244;61320;-70
2022/10/02 02:50:13;;;;;;;12.50;7.40;;;;;;;15.42;98.21;99949.66;107864;1244;71523;-70
2022/10/02 02:53:03;;;;;;;9.80;6.50;;;;;;;15.41;98.52;99951.33;107658;1245;70366;-71
2022/10/02 02:55:41;;;;;;;9.80;7.00;;;;;;;15.39;98.28;99954.73;107713;1247;68747;-70
2022/10/02 02:58:31;;;;;;;8.10;6.60;;;;;;;15.37;97.40;99952.98;107655;1244;71099;-70
2022/10/02 03:00:59;;;;;;;7.40;6.20;;;;;;;15.35;98.79;99955.27;107846;1244;63002;-73
2022/10/02 03:03:28;;;;;;;8.70;6.70;;;;;;;15.36;98.75;99956.71;107911;1244;59613;-70
2022/10/02 03:06:38;;;;;;;9.20;7.60;;;;;;;15.38;98.65;99957.27;107674;1247;72494;-71
2022/10/02 03:09:17;;;;;;;8.60;6.70;;;;;;;15.42;99.99;99960.85;107669;1244;69569;-70
2022/10/02 03:12:16;;;;;;;7.50;6.50;;;;;;;15.45;100.00;99959.33;107696;1244;68874;-71
2022/10/02 03:15:02;;;;;;;8.50;6.80;;;;;;;15.52;100.00;99961.27;107675;1244;73723;-68
2022/10/02 03:18:10;;;;;;;8.60;6.50;;;;;;;15.56;100.00;99962.57;107509;1247;61733;-70
2022/10/02 03:21:10;;;;;;;7.70;6.50;;;;;;;15.61;99.96;99964.79;107758;1244;59652;-70
2022/10/02 03:24:05;;;;;;;7.20;6.40;;;;;;;15.65;99.35;99966.38;107627;1244;71582;-68
2022/10/02 03:26:55;;;;;;;10.40;5.90;;;;;;;15.64;98.88;99962.05;107471;1247;70637;-69
2022/10/02 03:29:48;;;;;;;8.20;6.90;;;;;;;15.64;98.09;99959.48;107703;1244;68769;-69
2022/10/02 03:32:18;;;;;;;8.40;6.50;;;;;;;15.64;97.47;99964.35;107765;1244;73830;-69
2022/10/02 03:34:47;;;;;;;8.10;6.40;;;;;;;15.65;97.63;99964.13;107721;1245;62556;-69
2022/10/02 03:37:17;;;;;;;9.50;6.40;;;;;;;15.65;97.47;99964.33;107800;1243;59410;-72
2022/10/02 03:39:48;;;;;;;9.30;6.20;;;;;;;15.68;96.95;99968.35;107851;1244;74227;-71
2022/10/02 03:42:24;;;;;;;9.40;7.10;;;;;;;15.68;96.78;99973.09;107963;1244;72573;-70
2022/10/02 03:44:53;;;;;;;10.40;9.30;;;;;;;15.66;96.68;99977.17;107986;1244;70039;-70
2022/10/02 03:47:21;;;;;;;10.00;7.60;;;;;;;15.65;96.90;99978.70;107601;1244;74346;-69
2022/10/02 03:49:50;;;;;;;13.80;9.70;;;;;;;15.65;96.20;99981.81;107927;1244;62968;-71
2022/10/02 03:52:22;;;;;;;7.30;6.60;;;;;;;15.67;96.05;99982.14;107881;1244;59503;-70
2022/10/02 03:55:02;;;;;;;16.50;11.20;;;;;;;15.69;95.69;99985.49;108056;1244;73922;-70
2022/10/02 03:57:34;;;;;;;25.90;23.70;;;;;;;15.61;95.74;99986.48;107873;1246;69481;-70
2022/10/02 04:00:11;;;;;;;18.90;17.30;;;;;;;15.52;97.64;99993.52;107998;1244;69918;-72
2022/10/02 04:02:55;;;;;;;7.60;5.80;;;;;;;15.44;97.37;99999.11;107990;1243;71685;-70
2022/10/02 04:05:58;;;;;;;8.00;6.50;;;;;;;15.41;96.56;100000.98;107924;1244;62924;-70
2022/10/02 04:08:36;;;;;;;11.00;7.40;;;;;;;15.37;96.78;100000.66;107873;1244;61007;-71
2022/10/02 04:11:31;;;;;;;9.10;6.30;;;;;;;15.40;97.63;100014.27;107789;1244;74197;-71
2022/10/02 04:14:20;;;;;;;10.40;8.90;;;;;;;15.42;97.33;100014.73;107698;1244;72771;-70
2022/10/02 04:17:12;;;;;;;8.20;7.30;;;;;;;15.45;97.72;100030.73;107972;1244;69053;-69
2022/10/02 04:19:54;;;;;;;6.60;5.20;;;;;;;15.49;97.92;100036.84;107718;1244;72863;-71
2022/10/02 04:22:44;;;;;;;5.10;4.50;;;;;;;15.60;97.39;100042.92;107838;1244;62463;-70
2022/10/02 04:25:25;;;;;;;7.20;5.20;;;;;;;15.73;96.57;100052.75;107964;1244;61602;-71
2022/10/02 04:28:04;;;;;;;5.90;5.30;;;;;;;15.78;96.75;100055.43;107998;1244;74284;-72
2022/10/02 04:30:33;;;;;;;8.00;5.10;;;;;;;15.78;96.49;100064.73;107977;1244;72470;-71
2022/10/02 04:33:19;;;;;;;6.90;5.20;;;;;;;15.78;96.59;100072.46;107338;1243;765446;-69
2022/10/02 04:36:41;;;;;;;4.60;3.80;;;;;;;15.77;96.23;100067.11;107821;1244;71153;-69
2022/10/02 04:39:28;;;;;;;4.50;3.20;;;;;;;15.75;94.12;100073.30;107906;1243;62688;-70
2022/10/02 04:42:29;;;;;;;6.00;3.60;;;;;;;15.71;93.25;100079.89;107884;1244;59632;-69
2022/10/02 04:45:27;;;;;;;4.80;3.30;;;;;;;15.70;92.36;100090.11;107738;1244;73583;-72
2022/10/02 04:48:01;;;;;;;4.90;3.20;;;;;;;15.67;91.69;100103.11;107937;1244;72593;-69
2022/10/02 04:50:55;;;;;;;5.00;2.90;;;;;;;15.62;90.46;100101.97;107896;1244;68278;-71
2022/10/02 04:54:15;;;;;;;3.90;2.20;;;;;;;15.56;90.25;100110.27;107993;1244;71926;-71
2022/10/02 04:57:05;;;;;;;3.70;2.20;;;;;;;15.52;90.06;100121.28;108033;1243;62813;-68
2022/10/02 05:00:05;;;;;;;4.60;3.30;;;;;;;15.48;89.97;100112.02;107873;1244;60867;-71
2022/10/02 05:03:17;;;;;;;3.00;2.10;;;;;;;15.43;90.19;100105.34;108025;1244;75160;-70
2022/10/02 05:06:10;;;;;;;3.40;2.30;;;;;;;15.38;89.01;100111.50;107592;1243;72668;-72
2022/10/02 05:09:06;;;;;;;3.80;2.20;;;;;;;15.34;88.77;100110.52;107869;1243;67679;-70
2022/10/02 05:12:15;;;;;;;6.70;2.90;;;;;;;15.29;88.64;100111.88;108000;1243;73890;-70
2022/10/02 05:15:08;;;;;;;4.20;2.20;;;;;;;15.30;88.28;100121.91;107876;1244;63545;-70
2022/10/02 05:18:06;;;;;;;5.20;2.50;;;;;;;15.28;87.23;100126.21;108010;1244;60906;-71
2022/10/02 05:21:01;;;;;;;6.20;2.70;;;;;;;15.27;84.57;100136.44;107757;1245;71735;-70
2022/10/02 05:24:01;;;;;;;6.30;3.20;;;;;;;15.22;82.65;100136.47;107813;1244;70816;-71
2022/10/02 05:27:18;;;;;;;5.60;2.50;;;;;;;15.15;81.05;100144.67;107724;1244;70564;-71
2022/10/02 05:30:18;;;;;;;3.70;2.70;;;;;;;15.09;80.12;100148.08;107841;1244;73510;-70
2022/10/02 05:33:51;;;;;;;3.70;2.50;;;;;;;15.04;79.20;100160.64;107722;1245;59690;-70
2022/10/02 05:36:51;;;;;;;5.90;3.10;;;;;;;14.94;79.63;100162.27;107977;1244;58960;-69
2022/10/02 05:39:38;;;;;;;6.70;3.00;;;;;;;14.93;79.23;100158.45;107841;1244;72922;-69
2022/10/02 05:42:37;;;;;;;7.30;2.90;;;;;;;14.89;79.38;100154.11;107674;1243;69412;-70
2022/10/02 05:45:31;;;;;;;4.30;3.20;;;;;;;14.88;79.11;100170.02;107881;1244;69104;-69
2022/10/02 05:48:14;;;;;;;6.20;3.60;;;;;;;14.85;78.21;100169.77;107937;1244;71930;-71
2022/10/02 05:50:48;;;;;;;9.20;4.50;;;;;;;14.83;77.91;100171.39;107676;1245;59629;-79
2022/10/02 05:53:39;;;;;;;8.00;4.50;;;;;;;14.84;77.70;100185.23;107692;1246;61298;-81
2022/10/02 05:56:28;;;;;;;8.10;4.50;;;;;;;14.83;77.70;100191.40;107634;1247;73600;-83
2022/10/02 05:59:09;;;;;;;9.80;5.40;;;;;;;14.77;78.49;100193.64;107853;1244;72199;-75
2022/10/02 06:01:44;;;;;;;37.10;6.20;;;;;;;14.76;78.26;100193.77;107924;1244;69021;-79
2022/10/02 06:04:53;;;;;;;8.10;5.90;;;;;;;14.73;78.22;100204.64;107962;1244;73067;-81
2022/10/02 06:07:24;;;;;;;7.80;5.50;;;;;;;14.61;78.85;100200.50;107684;1245;61787;-77
2022/10/02 06:10:05;;;;;;;8.00;5.70;;;;;;;14.61;78.16;100203.48;107606;1247;58867;-82
2022/10/02 06:12:49;;;;;;;7.50;5.60;;;;;;;14.57;78.04;100213.56;108078;1246;72493;-80
2022/10/02 06:15:27;;;;;;;7.40;5.70;;;;;;;14.58;77.57;100213.95;108302;1244;69565;-79
2022/10/02 06:18:10;;;;;;;6.70;5.00;;;;;;;14.55;78.03;100225.67;108007;1244;71938;-80
2022/10/02 06:21:00;;;;;;;10.30;5.10;;;;;;;14.45;78.97;100232.02;107876;1247;73117;-84
2022/10/02 06:23:52;;;;;;;9.30;5.20;;;;;;;14.43;79.24;100241.11;108253;1243;61266;-82
2022/10/02 06:26:38;;;;;;;11.90;5.10;;;;;;;14.41;78.99;100256.94;107709;1244;59297;-82
2022/10/02 06:29:22;;;;;;;8.20;5.70;;;;;;;14.41;79.29;100269.23;107925;1244;73218;-81
2022/10/02 06:32:39;;;;;;;8.10;5.20;;;;;;;14.42;79.28;100271.34;107739;1244;72759;-85
2022/10/02 06:35:15;;;;;;;6.50;4.90;;;;;;;14.45;78.89;100289.16;107680;1247;69461;-84
2022/10/02 06:37:58;;;;;;;7.70;5.20;;;;;;;14.42;79.00;100303.30;107926;1244;73883;-89
2022/10/02 06:40:43;;;;;;;8.30;4.60;;;;;;;14.35;79.67;100310.44;107948;1244;62613;-88
2022/10/02 06:43:39;;;;;;;6.80;4.00;;;;;;;14.37;78.89;100317.17;108089;1244;61627;-85
2022/10/02 06:46:29;;;;;;;7.10;4.60;;;;;;;14.41;78.71;100318.59;108106;1244;72059;-82
2022/10/02 06:49:18;;;;;;;9.90;4.70;;;;;;;14.43;78.39;100317.83;107970;1245;70315;-86
2022/10/02 06:52:02;;;;;;;4.80;3.70;;;;;;;14.47;76.92;100309.27;107985;1243;69768;-83
2022/10/02 06:54:58;;;;;;;5.70;3.60;;;;;;;14.50;76.33;100321.73;107911;1244;72385;-83
2022/10/02 06:58:10;;;;;;;5.30;3.40;;;;;;;14.49;76.46;100328.21;108141;1244;60043;-86
2022/10/02 07:00:55;;;;;;;4.80;3.10;;;;;;;14.55;76.14;100325.09;108094;1245;59991;-80
2022/10/02 07:04:13;;;;;;;4.20;3.00;;;;;;;14.63;74.88;100321.58;107905;1244;72195;-81
2022/10/02 07:07:01;;;;;;;3.90;2.40;;;;;;;14.58;73.97;100329.94;107913;1244;71212;-77
2022/10/02 07:09:59;;;;;;;4.60;2.60;;;;;;;14.61;72.49;100344.55;107724;1244;70383;-77
2022/10/02 07:13:15;;;;;;;4.30;2.50;;;;;;;14.57;72.73;100337.92;107723;1244;74289;-78
2022/10/02 07:16:09;;;;;;;3.10;2.00;;;;;;;14.59;72.96;100341.10;107810;1244;63828;-80
2022/10/02 07:19:12;;;;;;;2.90;2.20;;;;;;;14.58;72.36;100343.06;107819;1244;60292;-82
2022/10/02 07:22:26;;;;;;;6.00;1.70;;;;;;;14.59;71.82;100340.02;107806;1244;74361;-79
2022/10/02 07:25:28;;;;;;;2.70;1.70;;;;;;;14.55;71.10;100357.21;107710;1244;72441;-75
2022/10/02 07:28:06;;;;;;;2.50;1.80;;;;;;;14.52;71.14;100361.33;107857;1244;70892;-73
2022/10/02 07:30:52;;;;;;;4.20;1.70;;;;;;;14.49;70.90;100346.05;107832;1244;73983;-74
2022/10/02 07:33:42;;;;;;;3.20;2.10;;;;;;;14.45;70.51;100361.42;107685;1244;59887;-73
2022/10/02 07:36:41;;;;;;;4.10;1.80;;;;;;;14.38;70.75;100352.49;107892;1244;60131;-74
2022/10/02 07:39:42;;;;;;;3.80;1.80;;;;;;;14.39;71.24;100349.05;107874;1244;72533;-81
2022/10/02 07:43:16;;;;;;;3.20;1.70;;;;;;;14.44;71.60;100348.25;107784;1246;70384;-86
2022/10/02 07:46:39;;;;;;;3.10;1.70;;;;;;;14.49;70.80;100363.17;107427;1244;69444;-91
2022/10/02 07:49:35;;;;;;;3.10;1.60;;;;;;;14.56;70.70;100365.70;107868;1243;73796;-89
2022/10/02 07:52:41;;;;;;;4.70;1.60;;;;;;;14.66;69.97;100367.04;107817;1244;61690;-89
2022/10/02 07:55:19;;;;;;;2.10;1.30;;;;;;;14.75;69.46;100378.49;108046;1244;60747;-89
2022/10/02 07:58:13;;;;;;;3.00;1.60;;;;;;;14.71;69.16;100380.23;107684;1247;72936;-90
2022/10/02 08:00:49;;;;;;;;;;;;;;;14.71;68.35;100384.48;108015;1244;71407;-90
2022/10/02 08:03:26;;;;;;;3.20;1.40;;;;;;;14.73;68.16;100378.13;107461;1244;70972;-71
2022/10/02 08:05:57;;;;;;;2.60;1.40;;;;;;;14.74;68.26;100381.32;107675;1244;74073;-72
2022/10/02 08:08:46;;;;;;;4.00;1.50;;;;;;;14.75;68.63;100380.01;107670;1244;61636;-71
2022/10/02 08:11:42;;;;;;;1.30;1.10;;;;;;;14.78;68.72;100374.33;107901;1243;60985;-71
2022/10/02 08:14:44;;;;;;;1.50;1.00;;;;;;;14.85;67.65;100377.14;107848;1244;74423;-72
2022/10/02 08:17:33;;;;;;;2.30;1.40;;;;;;;15.03;67.01;100371.22;107794;1244;70122;-72
2022/10/02 08:20:19;;;;;;;1.70;0.90;;;;;;;15.25;66.00;100371.32;107606;1244;70962;-71
2022/10/02 08:23:02;;;;;;;1.60;0.90;;;;;;;15.43;63.66;100387.33;107590;1246;72580;-76
2022/10/02 08:25:41;;;;;;;1.60;1.10;;;;;;;15.48;63.98;100375.93;107713;1244;59976;-74
2022/10/02 08:28:29;;;;;;;2.70;1.10;;;;;;;15.56;63.70;100378.30;107724;1245;60072;-74
2022/10/02 08:30:59;;;;;;;3.40;1.10;;;;;;;15.61;63.31;100373.98;107755;1244;74410;-74
2022/10/02 08:33:30;;;;;;;1.90;1.10;;;;;;;15.58;62.39;100369.52;107869;1244;72704;-74
2022/10/02 08:36:27;;;;;;;1.50;1.00;;;;;;;15.61;62.36;100382.38;107703;1246;68339;-75
2022/10/02 08:39:28;;;;;;;1.90;0.80;;;;;;;15.66;61.34;100390.77;108565;1245;73012;-92
2022/10/02 08:42:31;;;;;;;2.30;0.90;;;;;;;15.72;61.00;100383.05;108036;1245;60106;-90
2022/10/02 08:45:33;;;;;;;2.00;1.10;;;;;;;15.76;60.31;100380.80;108234;1244;59563;-87
2022/10/02 08:48:49;;;;;;;2.50;1.00;;;;;;;15.84;60.83;100379.39;108010;1244;73038;-84
2022/10/02 08:51:43;;;;;;;6.90;1.40;;;;;;;16.03;60.16;100369.11;108066;1244;71342;-84
2022/10/02 08:54:49;;;;;;;2.00;1.10;;;;;;;16.09;59.49;100378.55;107939;1244;70915;-79
2022/10/02 08:57:55;;;;;;;3.80;1.00;;;;;;;16.17;59.55;100382.46;107939;1243;74826;-82
2022/10/02 09:00:43;;;;;;;2.70;1.00;;;;;;;16.37;58.16;100369.50;108222;1244;59552;-81
2022/10/02 09:03:44;;;;;;;2.10;1.00;;;;;;;16.35;57.28;100379.51;107968;1244;60511;-81
2022/10/02 09:06:58;;;;;;;1.00;0.80;;;;;;;16.36;56.60;100380.14;107948;1244;74704;-91
2022/10/02 09:09:44;;;;;;;2.10;0.90;;;;;;;16.40;56.18;100381.15;108016;1244;71439;-89
2022/10/02 09:13:23;;;;;;;1.60;1.00;;;;;;;16.33;56.14;100374.65;108086;1244;68332;-87
2022/10/02 09:16:32;;;;;;;2.50;1.10;;;;;;;16.35;56.53;100382.34;107328;1251;73972;-86
2022/10/02 09:19:41;;;;;;;2.20;0.90;;;;;;;16.39;56.24;100361.07;107014;1253;60183;-79
2022/10/02 09:22:28;;;;;;;1.50;0.80;;;;;;;16.46;54.81;100366.85;107796;1244;59585;-82
2022/10/02 09:25:21;;;;;;;4.20;1.30;;;;;;;16.54;55.63;100386.04;107939;1244;73583;-80
2022/10/02 09:28:33;;;;;;;75.60;7.80;;;;;;;16.55;55.12;100377.46;108120;1244;71866;-78
2022/10/02 09:31:25;;;;;;;2.80;1.10;;;;;;;16.47;54.43;100370.80;108151;1244;66739;-79
2022/10/02 09:35:19;;;;;;;4.60;1.40;;;;;;;16.60;55.20;100380.20;107780;1244;74253;-79
2022/10/02 09:38:39;;;;;;;1.40;1.00;;;;;;;16.64;54.58;100362.45;107804;1243;61068;-79
2022/10/02 09:41:58;;;;;;;4.40;1.60;;;;;;;16.72;53.98;100342.03;107531;1247;61914;-81
2022/10/02 09:45:14;;;;;;;2.60;1.40;;;;;;;16.79;53.56;100347.67;107853;1244;75153;-84
2022/10/02 09:48:17;;;;;;;2.60;1.30;;;;;;;16.92;53.21;100347.52;107961;1244;72191;-86
2022/10/02 09:52:11;;;;;;;2.80;1.40;;;;;;;16.86;52.70;100335.48;108150;1244;69372;-87
2022/10/02 09:55:52;;;;;;;;;;;;;;;;;;;;;
2022/10/02 09:59:36;;;;;;;2.80;1.60;;;;;;;17.31;51.48;100359.05;107907;1244;60629;-81
2022/10/02 10:02:24;;;;;;;3.10;1.80;;;;;;;17.36;50.57;100327.92;107878;1244;60803;-84
2022/10/02 10:05:32;;;;;;;4.60;2.10;;;;;;;17.39;49.84;100320.15;107988;1244;74639;-82
2022/10/02 10:08:49;;;;;;;3.40;1.80;;;;;;;17.45;48.34;100344.87;107886;1244;71033;-81
2022/10/02 10:11:54;;;;;;;3.60;1.90;;;;;;;17.53;48.01;100334.84;107820;1244;70723;-83
2022/10/02 10:15:08;;;;;;;5.10;1.70;;;;;;;17.70;47.77;100345.17;107812;1246;63015;-84
2022/10/02 10:17:43;;;;;;;3.10;1.80;;;;;;;18.12;46.74;100346.80;107870;1244;61255;-84
2022/10/02 10:21:04;;;;;;;3.70;1.70;;;;;;;18.34;46.88;100334.78;107800;1244;61818;-84
2022/10/02 10:23:45;;;;;;;3.20;1.60;;;;;;;18.62;45.81;100328.90;108052;1244;74057;-87
2022/10/02 10:26:43;;;;;;;7.60;2.20;;;;;;;18.91;44.13;100339.59;108491;1244;61359;-89
2022/10/02 10:30:06;;;;;;;4.40;1.70;;;;;;;19.08;42.90;100341.69;107981;1244;70610;-86
2022/10/02 10:33:16;;;;;;;2.20;1.40;;;;;;;19.39;42.10;100348.71;107382;1251;63551;-85
2022/10/02 10:40:28;;;;;;;3.30;1.90;;;;;;;18.91;42.92;100361.24;107537;1244;60752;-83
2022/10/02 10:43:40;;;;;;;4.10;1.70;;;;;;;18.31;44.67;100366.11;107902;1244;63457;-85
2022/10/02 10:46:43;;;;;;;6.20;1.90;;;;;;;17.96;45.41;100383.61;107954;1243;61589;-83
2022/10/02 10:50:02;;;;;;;3.10;1.50;;;;;;;17.70;46.11;100375.25;107879;1245;59242;-83
2022/10/02 10:53:02;;;;;;;4.50;2.10;;;;;;;17.59;46.41;100373.12;107938;1244;72271;-84
2022/10/02 10:56:22;;;;;;;4.20;2.10;;;;;;;17.65;46.55;100367.52;108011;1244;59573;-82
2022/10/02 10:59:34;;;;;;;4.30;1.50;;;;;;;17.90;45.82;100374.02;107959;1244;60381;-83
2022/10/02 11:02:36;;;;;;;2.90;1.30;;;;;;;18.04;45.14;100360.56;108179;1244;73583;-83
2022/10/02 11:05:45;;;;;;;5.30;1.30;;;;;;;17.88;44.25;100367.91;108096;1244;61210;-85
2022/10/02 11:08:49;;;;;;;1.70;1.20;;;;;;;17.93;44.15;100372.98;107942;1244;59220;-83
2022/10/02 11:12:04;;;;;;;2.60;1.30;;;;;;;18.10;43.96;100366.95;107552;1247;73732;-85
2022/10/02 11:14:58;;;;;;;2.40;1.10;;;;;;;18.36;43.06;100364.54;107642;1244;58324;-85
2022/10/02 11:17:30;;;;;;;2.10;1.30;;;;;;;18.70;42.64;100362.02;107698;1244;60426;-83
2022/10/02 11:20:28;;;;;;;2.60;1.30;;;;;;;18.86;41.79;100352.81;107840;1246;65465;-84
2022/10/02 11:23:34;;;;;;;3.90;1.40;;;;;;;18.95;42.14;100353.38;107890;1244;61650;-83
2022/10/02 11:26:20;;;;;;;2.50;1.50;;;;;;;19.40;41.94;100349.31;107424;1245;69997;-86
2022/10/02 11:29:18;;;;;;;2.90;1.40;;;;;;;19.88;41.08;100346.06;107887;1244;73674;-82
2022/10/02 11:32:13;;;;;;;2.50;1.30;;;;;;;19.71;41.28;100346.23;107777;1244;62152;-81
2022/10/02 11:35:14;;;;;;;2.90;1.30;;;;;;;19.45;41.61;100351.63;107979;1244;61068;-86
2022/10/02 11:38:08;;;;;;;1.50;1.10;;;;;;;19.54;41.35;100348.75;107807;1244;62976;-89
2022/10/02 11:41:01;;;;;;;3.20;1.30;;;;;;;19.82;40.70;100359.63;107971;1244;72168;-87
2022/10/02 11:43:35;;;;;;;;;;;;;;;19.51;41.19;100359.78;108169;1243;71061;-85
2022/10/02 11:46:52;;;;;;;2.10;1.30;;;;;;;19.96;41.09;100358.02;108042;1244;64688;-89
2022/10/02 11:49:45;;;;;;;3.40;1.20;;;;;;;19.98;41.23;100358.33;108136;1244;61057;-88
2022/10/02 11:52:54;;;;;;;2.80;1.10;;;;;;;20.23;40.16;100361.19;107815;1245;59471;-86
2022/10/02 11:55:49;;;;;;;1.30;1.20;;;;;;;20.30;40.39;100357.84;108092;1244;63788;-85
2022/10/02 11:58:43;;;;;;;2.60;1.40;;;;;;;20.13;40.61;100372.39;107951;1245;62068;-85
2022/10/02 12:02:01;;;;;;;3.20;1.50;;;;;;;20.14;40.72;100358.70;108039;1245;59247;-86
2022/10/02 12:05:26;;;;;;;2.40;1.30;;;;;;;19.96;41.30;100367.27;108030;1244;63548;-85
2022/10/02 12:08:29;;;;;;;2.70;1.30;;;;;;;20.10;40.96;100368.35;108184;1245;59548;-85
2022/10/02 12:11:32;;;;;;;2.40;1.20;;;;;;;20.44;40.37;100364.69;108110;1244;61251;-84
2022/10/02 12:14:13;;;;;;;4.20;1.50;;;;;;;20.42;40.43;100371.46;108015;1244;64466;-80
2022/10/02 12:17:05;;;;;;;3.90;1.20;;;;;;;20.71;40.20;100369.89;108116;1244;71449;-80
2022/10/02 12:26:57;;;;;;;2.00;1.30;;;;;;;20.64;40.28;100367.54;107885;1245;59613;-75
2022/10/02 12:29:00;;;;;;;2.20;1.40;;;;;;;20.12;40.96;100376.45;108084;1244;61121;-80
2022/10/02 12:32:35;;;;;;;2.20;1.40;;;;;;;20.58;40.09;100371.47;107946;1245;74273;-81
2022/10/02 12:35:26;;;;;;;2.30;1.30;;;;;;;20.77;39.39;100360.19;107347;1252;72588;-82
2022/10/02 12:38:26;;;;;;;1.30;1.00;;;;;;;21.24;38.21;100368.61;108126;1243;70604;-81
2022/10/02 12:41:31;;;;;;;2.00;1.00;;;;;;;21.32;37.27;100373.87;108041;1244;64057;-82
2022/10/02 12:44:44;;;;;;;1.30;0.90;;;;;;;21.04;37.71;100361.16;107978;1244;61268;-86
2022/10/02 12:47:19;;;;;;;2.50;0.70;;;;;;;21.04;37.75;100358.27;107886;1245;59547;-84
2022/10/02 12:50:22;;;;;;;2.70;0.70;;;;;;;21.08;37.26;100365.95;108110;1244;62995;-84
2022/10/02 12:53:28;;;;;;;1.10;0.60;;;;;;;20.79;37.13;100363.61;107800;1247;71510;-79
2022/10/02 12:56:30;;;;;;;1.80;0.80;;;;;;;20.62;37.70;100358.97;108064;1245;67622;-91
2022/10/02 12:59:26;;;;;;;0.40;0.40;;;;;;;20.87;36.89;100347.95;107997;1244;62715;-80
2022/10/02 13:02:49;;;;;;;2.20;0.60;;;;;;;20.47;37.82;100349.14;107792;1245;61747;-84
2022/10/02 13:05:52;;;;;;;;;;;;;;;19.34;39.69;100346.73;107784;1244;61645;-77
2022/10/02 13:09:12;;;;;;;1.30;0.70;;;;;;;19.15;39.96;100346.04;107781;1244;64223;-78
2022/10/02 13:12:01;;;;;;;1.50;0.60;;;;;;;19.44;40.10;100344.31;107858;1243;72231;-81
2022/10/02 13:14:52;;;;;;;2.40;0.80;;;;;;;19.84;39.81;100343.15;107992;1244;59722;-76
2022/10/02 13:17:44;;;;;;;1.10;0.60;;;;;;;20.57;38.43;100342.58;107982;1244;73887;-81
2022/10/02 13:20:43;;;;;;;1.70;0.60;;;;;;;20.79;37.51;100342.63;108131;1244;62872;-75
2022/10/02 13:23:38;;;;;;;1.90;0.50;;;;;;;20.43;37.94;100342.81;107573;1245;61669;-75
2022/10/02 13:26:41;;;;;;;0.40;0.40;;;;;;;19.93;38.69;100349.09;107724;1247;64181;-81
2022/10/02 13:29:21;;;;;;;3.00;0.50;;;;;;;19.47;39.85;100347.08;108163;1244;72307;-83
2022/10/02 13:32:44;;;;;;;1.00;0.80;;;;;;;19.15;40.84;100350.11;108900;1243;59750;-80